KCRG

Jacksonville Executive at Craig Airport

Jacksonville, Florida, USA
METAR KCRG 220953Z 13006KT 10SM SCT060 SCT085 BKN120 22/21 A3008 RMK AO2 SLP186 T02220206
Observed Flight Rules
May-22 @ 09:53 UTC (15 minutes ago) Visual Flight Rules
Wind Visibility Clouds
130° at 6 knots 10 miles
  • Scattered at 6,000' AGL
  • Scattered at 8,500' AGL
  • Broken at 12,000' AGL
Temperatures Readings
Current 22°C / 72°F
Dewpoint 21°C / 70°F
Humidity 94%
Altimeter 30.08" Hg
Pressure 1018.6 hPa
Elevation 13
METAR KCRG 220953Z 13006KT 10SM SCT060 SCT085 BKN120 22/21 A3008 RMK AO2 SLP186 T02220206
Observed Flight Rules
May-22 @ 09:53 UTC
(15 minutes ago)
VFR
Wind Visibility
130° at 6 knots 10 miles
Clouds
  • Scattered at 6,000' AGL
  • Scattered at 8,500' AGL
  • Broken at 12,000' AGL
Temperature Dewpoint
22°C / 72°F 21°C / 70°F
Humidity Altimeter Pressure
94% 30.08" Hg 1018.6 hPa